Погода Сакуаремана неделю

Рио-де-Жанейро, Бразилия

22 - 28 июля
  • 22июля
    Сегодня
    +14°
    +26°
    Ясно и безоблачно
    ВремяПогодаТемператураВлажностьДавлениеВетер, м/сВероятность осадков
    00:00Ясно и безоблачно+17°C92 %767 мм2.4 м/с5 %
    03:00Ясно и безоблачно+16°C93 %766 мм3.0 м/с5 %
    06:00Небольшая облачность+14°C97 %766 мм2.1 м/с5 %
    09:00Ясно и безоблачно+20°C85 %767 мм1.4 м/с5 %
    12:00Ясно и безоблачно+25°C67 %767 мм3.2 м/с5 %
    15:00Ясно и безоблачно+25°C65 %766 мм2.0 м/с5 %
    18:00Ясно и безоблачно+19°C85 %766 мм2.4 м/с5 %
    21:00Ясно и безоблачно+18°C91 %767 мм3.0 м/с5 %
  • 23июля
    Вторник
    +14°
    +25°
    Ясно и безоблачно
    ВремяПогодаТемператураВлажностьДавлениеВетер, м/сВероятность осадков
    00:00Ясно и безоблачно+18°C90 %768 мм3.2 м/с5 %
    03:00Практически безоблачно+16°C92 %767 мм2.2 м/с5 %
    06:00Небольшая облачность+16°C93 %768 мм2.0 м/с3 %
    09:00Практически безоблачно+20°C86 %769 мм2.0 м/с4 %
    12:00Ясно и безоблачно+24°C71 %768 мм2.7 м/с5 %
    15:00Ясно и безоблачно+23°C68 %768 мм3.6 м/с5 %
    18:00Ясно и безоблачно+18°C87 %768 мм2.1 м/с5 %
    21:00Ясно и безоблачно+16°C90 %769 мм0.9 м/с5 %
  • 24июля
    Среда
    +16°
    +27°
    Ясно и безоблачно
    ВремяПогодаТемператураВлажностьДавлениеВетер, м/сВероятность осадков
    00:00Ясно и безоблачно+16°C95 %769 мм1.7 м/с5 %
    03:00Небольшая облачность+15°C96 %768 мм1.6 м/с5 %
    06:00Облачно с прояснениями+14°C98 %769 мм1.6 м/с5 %
    09:00Практически безоблачно+20°C88 %770 мм1.9 м/с5 %
    12:00Ясно и безоблачно+27°C65 %769 мм3.4 м/с5 %
    15:00Ясно и безоблачно+26°C72 %767 мм5.3 м/с5 %
    18:00Ясно и безоблачно+21°C84 %768 мм4.8 м/с5 %
    21:00Ясно и безоблачно+19°C91 %769 мм3.8 м/с5 %
  • 25июля
    Четверг
    +14°
    +29°
    Ясно и безоблачно
    ВремяПогодаТемператураВлажностьДавлениеВетер, м/сВероятность осадков
    00:00Ясно и безоблачно+19°C91 %768 мм5.1 м/с5 %
    03:00Ясно и безоблачно+19°C89 %767 мм5.0 м/с5 %
    06:00Ясно и безоблачно+16°C88 %767 мм3.7 м/с5 %
    09:00Ясно и безоблачно+22°C73 %767 мм3.4 м/с5 %
    12:00Ясно и безоблачно+28°C53 %766 мм1.5 м/с5 %
    15:00Ясно и безоблачно+28°C57 %764 мм2.9 м/с5 %
    18:00Ясно и безоблачно+23°C72 %764 мм3.9 м/с5 %
    21:00Ясно и безоблачно+19°C80 %765 мм3.1 м/с5 %
  • 26июля
    Пятница
    +15°
    +30°
    Небольшая облачность
    ВремяПогодаТемператураВлажностьДавлениеВетер, м/сВероятность осадков
    00:00Ясно и безоблачно+18°C84 %764 мм3.5 м/с5 %
    03:00Ясно и безоблачно+17°C88 %763 мм2.7 м/с5 %
    06:00Ясно и безоблачно+15°C90 %764 мм1.8 м/с5 %
    09:00Ясно и безоблачно+25°C65 %764 мм1.7 м/с5 %
    12:00Ясно и безоблачно+30°C53 %764 мм2.3 м/с5 %
    15:00Небольшая облачность+27°C62 %763 мм2.9 м/с5 %
    18:00Облачно с прояснениями+21°C84 %764 мм2.0 м/с5 %
    21:00Облачно с прояснениями+19°C80 %765 мм2.0 м/с5 %
Мы используем cookies
Соглашаюсь